Time;durP1;ratioP1;P1;durP2;ratioP2;P2;SDS_P1;SDS_P2;PMS_P1;PMS_P2;Temp;Humidity;BMP_temperature;BMP_pressure;BME280_temperature;BME280_humidity;BME280_pressure;Samples;Min_cycle;Max_cycle;Signal;HPM_P1;HPM_P2
2023/03/15 00:01:23;;;;;;;20.17;1.95;;;1.90;71.60;;;;;;4126347;28;20029;-87
2023/03/15 00:03:51;;;;;;;13.00;1.15;;;1.90;71.70;;;;;;4139882;28;20061;-90
2023/03/15 00:06:11;;;;;;;11.05;1.55;;;1.90;71.70;;;;;;4126579;28;20089;-87
2023/03/15 00:08:33;;;;;;;9.45;1.30;;;2.00;71.80;;;;;;4138648;28;20037;-87
2023/03/15 00:10:53;;;;;;;7.70;1.17;;;2.00;71.80;;;;;;4137156;28;20515;-89
2023/03/15 00:13:13;;;;;;;13.45;1.25;;;1.90;71.90;;;;;;4128692;28;20535;-88
2023/03/15 00:15:33;;;;;;;18.75;1.60;;;1.90;71.90;;;;;;4127152;28;20088;-87
2023/03/15 00:17:52;;;;;;;14.88;1.08;;;2.00;72.00;;;;;;4128146;28;20048;-88
2023/03/15 00:20:13;;;;;;;9.32;1.50;;;2.00;72.00;;;;;;4138521;28;20062;-89
2023/03/15 00:22:32;;;;;;;10.32;1.27;;;2.00;72.00;;;;;;4127947;28;20116;-87
2023/03/15 00:24:52;;;;;;;12.68;1.60;;;2.00;72.20;;;;;;4141680;28;20041;-87
2023/03/15 00:27:11;;;;;;;14.48;1.40;;;2.10;72.20;;;;;;4140949;28;20220;-88
2023/03/15 00:29:14;;;;;;;15.88;1.30;;;2.00;72.20;;;;;;4146783;28;20022;-90
2023/03/15 00:31:21;;;;;;;8.35;1.48;;;2.10;72.30;;;;;;4160507;28;20045;-89
2023/03/15 00:33:22;;;;;;;12.45;1.60;;;2.00;72.10;;;;;;4142191;28;20052;-91
2023/03/15 00:35:27;;;;;;;21.70;2.13;;;2.00;72.20;;;;;;4109328;28;20031;-88
2023/03/15 00:37:53;;;;;;;12.30;1.50;;;2.10;72.30;;;;;;4137624;28;20111;-88
2023/03/15 00:40:13;;;;;;;17.40;2.03;;;2.10;72.20;;;;;;4134077;28;20035;-88
2023/03/15 00:42:34;;;;;;;15.27;1.70;;;2.10;72.20;;;;;;4129687;28;20038;-87
2023/03/15 00:44:55;;;;;;;11.32;1.42;;;2.10;72.10;;;;;;4137273;28;20030;-88
2023/03/15 00:47:15;;;;;;;14.68;1.88;;;2.20;72.10;;;;;;4134424;28;20096;-87
2023/03/15 00:49:36;;;;;;;22.13;1.77;;;2.10;72.00;;;;;;4136848;28;20033;-87
2023/03/15 00:51:37;;;;;;;15.68;1.90;;;2.20;71.90;;;;;;4139498;28;20026;-89
2023/03/15 00:53:58;;;;;;;21.17;1.88;;;2.20;72.00;;;;;;4136896;28;20034;-87
2023/03/15 00:56:25;;;;;;;14.40;1.70;;;2.20;72.00;;;;;;4137860;28;20037;-88
2023/03/15 00:58:33;;;;;;;17.88;2.33;;;2.20;71.90;;;;;;4130167;28;20110;-91
2023/03/15 01:00:57;;;;;;;18.25;2.22;;;2.10;72.10;;;;;;4130385;28;20062;-88
2023/03/15 01:03:17;;;;;;;13.77;2.03;;;2.20;71.90;;;;;;4138892;28;20144;-87
2023/03/15 01:05:41;;;;;;;20.10;1.80;;;2.20;71.90;;;;;;4139563;28;20048;-90
2023/03/15 01:08:02;;;;;;;13.60;1.95;;;2.20;71.80;;;;;;4123688;28;20045;-87
2023/03/15 01:10:22;;;;;;;7.57;1.48;;;2.20;71.70;;;;;;4138931;28;20593;-87
2023/03/15 01:12:43;;;;;;;11.02;1.60;;;2.30;71.70;;;;;;4139121;28;20080;-86
2023/03/15 01:14:47;;;;;;;16.23;2.03;;;2.20;71.50;;;;;;4137597;28;20025;-88
2023/03/15 01:16:48;;;;;;;15.50;2.20;;;2.10;71.30;;;;;;4122470;28;20046;-86
2023/03/15 01:18:50;;;;;;;9.60;1.30;;;2.20;71.50;;;;;;4140032;28;20034;-88
2023/03/15 01:20:51;;;;;;;7.03;1.25;;;2.20;71.40;;;;;;4138612;28;20034;-87
2023/03/15 01:22:51;;;;;;;10.40;1.20;;;2.20;71.50;;;;;;4136215;28;20366;-88
2023/03/15 01:24:52;;;;;;;17.25;1.67;;;2.30;71.60;;;;;;4127391;28;20018;-87
2023/03/15 01:26:53;;;;;;;13.25;1.55;;;2.30;71.50;;;;;;4120931;28;20026;-90
2023/03/15 01:28:54;;;;;;;10.50;1.52;;;2.30;71.50;;;;;;4116496;28;20203;-87
2023/03/15 01:30:56;;;;;;;10.90;1.42;;;2.20;71.40;;;;;;4137131;28;20026;-88
2023/03/15 01:33:17;;;;;;;6.18;1.27;;;2.30;71.40;;;;;;4138786;28;20034;-87
2023/03/15 01:35:38;;;;;;;7.25;1.20;;;2.30;71.30;;;;;;4121922;28;20057;-87
2023/03/15 01:37:58;;;;;;;12.48;1.23;;;2.30;71.30;;;;;;4136537;28;20026;-87
2023/03/15 01:40:19;;;;;;;13.65;1.45;;;2.30;71.30;;;;;;4126090;28;20049;-86
2023/03/15 01:43:12;;;;;;;9.32;1.38;;;2.20;71.20;;;;;;4126353;28;20037;-87
2023/03/15 01:45:58;;;;;;;6.82;1.05;;;2.20;71.20;;;;;;4134169;28;20030;-87
2023/03/15 01:48:22;;;;;;;12.90;1.40;;;2.20;71.20;;;;;;4135589;28;20502;-87
2023/03/15 01:50:43;;;;;;;9.10;1.40;;;2.30;71.20;;;;;;4139465;28;20595;-87
2023/03/15 01:53:04;;;;;;;5.90;1.17;;;2.20;71.20;;;;;;4137975;28;20117;-87
2023/03/15 01:55:25;;;;;;;13.73;1.25;;;2.20;71.20;;;;;;4136141;28;20044;-88
2023/03/15 01:57:54;;;;;;;8.95;0.98;;;2.10;71.20;;;;;;4138101;28;20057;-88
2023/03/15 02:00:20;;;;;;;8.77;1.33;;;2.20;71.20;;;;;;4137966;28;20116;-88
2023/03/15 02:02:46;;;;;;;7.32;0.90;;;2.20;71.30;;;;;;4120772;28;20039;-88
2023/03/15 02:05:10;;;;;;;11.93;1.25;;;2.10;71.20;;;;;;4135124;28;20030;-87
2023/03/15 02:07:33;;;;;;;8.48;1.42;;;2.10;71.20;;;;;;4135324;28;20037;-89
2023/03/15 02:10:05;;;;;;;9.85;1.15;;;2.10;71.30;;;;;;4141974;28;20038;-87
2023/03/15 02:12:27;;;;;;;8.93;1.65;;;2.00;71.20;;;;;;4129644;28;20109;-88
2023/03/15 02:14:53;;;;;;;9.20;1.73;;;2.10;71.30;;;;;;4139182;28;20038;-86
2023/03/15 02:17:13;;;;;;;16.10;1.30;;;1.90;71.20;;;;;;4125739;28;20039;-88
2023/03/15 02:20:04;;;;;;;11.95;1.15;;;2.00;71.30;;;;;;4136637;28;20037;-87
2023/03/15 02:23:03;;;;;;;12.65;1.42;;;1.90;71.10;;;;;;4124730;28;20363;-87
2023/03/15 02:25:49;;;;;;;11.65;1.63;;;1.90;71.10;;;;;;4090839;28;20073;-87
2023/03/15 02:28:13;;;;;;;14.02;1.60;;;2.00;71.20;;;;;;4123781;28;20034;-88
2023/03/15 02:30:34;;;;;;;6.60;0.98;;;1.80;71.00;;;;;;4136500;28;20026;-88
2023/03/15 02:32:56;;;;;;;7.90;1.25;;;1.90;71.10;;;;;;4126313;28;20068;-88
2023/03/15 02:35:26;;;;;;;11.90;1.30;;;1.80;71.10;;;;;;4139001;28;20117;-88
2023/03/15 02:37:46;;;;;;;10.90;1.40;;;1.80;71.10;;;;;;4138107;28;20128;-87
2023/03/15 02:40:19;;;;;;;11.35;1.42;;;1.80;71.10;;;;;;4138919;28;20041;-87
2023/03/15 02:42:41;;;;;;;11.93;1.38;;;1.70;71.00;;;;;;4127008;28;20068;-88
2023/03/15 02:45:02;;;;;;;6.18;1.17;;;1.70;71.00;;;;;;4137012;28;20022;-88
2023/03/15 02:47:28;;;;;;;8.90;1.02;;;1.60;71.00;;;;;;4136579;28;20026;-87
2023/03/15 02:49:51;;;;;;;6.82;1.08;;;1.60;71.00;;;;;;4141082;28;20114;-88
2023/03/15 02:52:12;;;;;;;14.20;1.65;;;1.50;70.90;;;;;;4124152;28;20027;-88
2023/03/15 02:54:33;;;;;;;11.25;1.60;;;1.50;70.90;;;;;;4135438;28;20030;-90
2023/03/15 02:56:54;;;;;;;11.52;1.48;;;1.60;71.10;;;;;;4123803;28;20064;-87
2023/03/15 02:59:14;;;;;;;13.65;1.50;;;1.50;71.00;;;;;;4124858;28;20030;-88
2023/03/15 03:01:36;;;;;;;14.90;1.50;;;1.50;71.00;;;;;;4134244;28;20033;-86
2023/03/15 03:03:59;;;;;;;16.38;1.52;;;1.50;71.10;;;;;;4126044;28;20061;-88
2023/03/15 03:06:20;;;;;;;9.55;1.27;;;1.40;71.00;;;;;;4135557;28;20061;-87
2023/03/15 03:08:40;;;;;;;11.32;1.23;;;1.40;71.00;;;;;;4138075;28;20038;-89
2023/03/15 03:11:00;;;;;;;8.77;1.25;;;1.40;71.00;;;;;;4125865;28;20049;-88
2023/03/15 03:13:19;;;;;;;14.38;1.35;;;1.20;70.90;;;;;;4139214;28;20045;-88
2023/03/15 03:15:38;;;;;;;5.40;1.08;;;1.30;71.00;;;;;;4132415;28;20053;-87
2023/03/15 03:17:57;;;;;;;14.20;1.48;;;1.20;71.00;;;;;;4123619;28;20053;-87
2023/03/15 03:20:17;;;;;;;16.85;1.50;;;1.20;71.00;;;;;;4136243;28;20053;-87
2023/03/15 03:22:36;;;;;;;9.77;1.38;;;1.10;70.90;;;;;;4137439;28;20081;-87
2023/03/15 03:25:05;;;;;;;10.15;1.08;;;1.20;71.10;;;;;;4137193;28;20087;-87
2023/03/15 03:27:24;;;;;;;16.80;1.48;;;1.10;71.20;;;;;;4120359;28;20188;-88
2023/03/15 03:29:43;;;;;;;13.32;1.52;;;1.10;71.20;;;;;;4137620;28;20032;-90
2023/03/15 03:32:03;;;;;;;11.35;1.30;;;1.00;71.10;;;;;;4140234;28;20072;-88
2023/03/15 03:34:23;;;;;;;5.80;1.05;;;1.00;71.10;;;;;;4126200;28;20057;-88
2023/03/15 03:36:46;;;;;;;9.02;1.33;;;1.00;71.20;;;;;;4124110;28;20550;-88
2023/03/15 03:39:05;;;;;;;16.58;1.83;;;0.90;71.20;;;;;;4123011;28;20121;-87
2023/03/15 03:41:25;;;;;;;13.65;1.60;;;1.00;71.30;;;;;;4139208;28;20037;-87
2023/03/15 03:43:44;;;;;;;17.13;1.52;;;0.90;71.40;;;;;;4137022;28;20053;-88
2023/03/15 03:46:04;;;;;;;11.20;1.40;;;0.90;71.40;;;;;;4136268;28;20081;-88
2023/03/15 03:48:24;;;;;;;15.77;2.15;;;0.80;71.60;;;;;;4143288;28;20095;-87
2023/03/15 03:50:43;;;;;;;9.90;1.67;;;0.80;71.70;;;;;;4148720;28;20037;-89
2023/03/15 03:53:02;;;;;;;9.15;1.50;;;0.80;71.80;;;;;;4142458;28;20042;-91
2023/03/15 03:55:23;;;;;;;8.98;1.17;;;0.80;71.80;;;;;;4145977;28;20494;-88
2023/03/15 03:57:43;;;;;;;10.98;1.30;;;0.80;71.90;;;;;;4121974;28;20668;-87
2023/03/15 04:00:03;;;;;;;20.15;1.63;;;0.70;71.80;;;;;;4123649;28;20056;-88
2023/03/15 04:02:23;;;;;;;17.13;1.42;;;0.70;71.90;;;;;;4124427;28;20994;-87
2023/03/15 04:04:42;;;;;;;8.38;1.38;;;0.70;71.90;;;;;;4121662;28;20038;-87
2023/03/15 04:07:01;;;;;;;8.38;1.33;;;0.70;71.80;;;;;;4135363;28;20387;-88
2023/03/15 04:09:24;;;;;;;10.38;1.02;;;0.70;71.90;;;;;;4139575;28;20053;-87
2023/03/15 04:11:44;;;;;;;14.00;1.20;;;0.60;71.90;;;;;;4138274;28;20053;-88
2023/03/15 04:14:03;;;;;;;9.95;1.60;;;0.60;72.00;;;;;;4136858;28;20096;-88
2023/03/15 04:16:23;;;;;;;10.05;1.17;;;0.70;72.00;;;;;;4137572;28;20097;-88
2023/03/15 04:18:42;;;;;;;10.32;1.48;;;0.60;71.90;;;;;;4139099;28;20658;-89
2023/03/15 04:21:01;;;;;;;9.82;1.20;;;0.60;72.00;;;;;;4137967;28;20045;-88
2023/03/15 04:23:22;;;;;;;8.07;1.77;;;0.60;72.10;;;;;;4139332;28;20030;-88
2023/03/15 04:25:41;;;;;;;6.75;1.13;;;0.50;72.10;;;;;;4142662;28;20056;-88
2023/03/15 04:28:01;;;;;;;8.07;1.35;;;0.60;72.10;;;;;;4142526;28;20064;-88
2023/03/15 04:30:25;;;;;;;18.38;1.30;;;0.60;72.20;;;;;;4138883;28;20096;-88
2023/03/15 04:32:45;;;;;;;6.45;0.98;;;0.50;72.30;;;;;;4125713;28;20522;-88
2023/03/15 04:35:04;;;;;;;8.05;1.08;;;0.50;72.30;;;;;;4142738;28;20566;-88
2023/03/15 04:37:23;;;;;;;8.00;1.20;;;0.40;72.20;;;;;;4142911;28;20068;-87
2023/03/15 04:39:43;;;;;;;4.50;0.82;;;0.50;72.30;;;;;;4142188;28;20092;-87
2023/03/15 04:42:03;;;;;;;6.80;1.30;;;0.40;72.30;;;;;;4126345;28;20182;-88
2023/03/15 04:44:25;;;;;;;8.25;1.27;;;0.40;72.40;;;;;;4142717;28;20132;-87
2023/03/15 04:46:44;;;;;;;9.93;1.25;;;0.40;72.50;;;;;;4137785;28;20093;-88
2023/03/15 04:49:04;;;;;;;6.22;1.08;;;0.40;72.50;;;;;;4128784;28;20337;-89
2023/03/15 04:51:24;;;;;;;14.70;1.40;;;0.30;72.50;;;;;;4142549;28;20084;-88
2023/03/15 04:53:43;;;;;;;11.60;1.30;;;0.30;73.20;;;;;;4138686;28;20084;-87
2023/03/15 04:56:03;;;;;;;5.35;0.90;;;0.40;72.60;;;;;;4129037;28;20044;-87
2023/03/15 04:58:22;;;;;;;12.35;1.48;;;0.30;72.60;;;;;;4136632;28;20085;-88
2023/03/15 05:00:41;;;;;;;10.25;1.42;;;0.30;72.70;;;;;;4136199;28;20049;-88
2023/03/15 05:03:01;;;;;;;9.40;1.33;;;0.20;72.70;;;;;;4126018;28;20057;-88
2023/03/15 05:05:22;;;;;;;8.25;1.17;;;0.30;72.80;;;;;;4141281;28;20064;-89
2023/03/15 05:07:41;;;;;;;5.00;1.13;;;0.30;72.80;;;;;;4137691;28;20045;-88
2023/03/15 05:10:00;;;;;;;21.75;2.15;;;0.30;73.00;;;;;;4130040;28;20125;-88
2023/03/15 05:12:19;;;;;;;7.28;1.58;;;0.20;73.00;;;;;;4139131;28;20598;-89
2023/03/15 05:14:38;;;;;;;11.48;1.30;;;0.30;73.40;;;;;;4141133;28;20617;-88
2023/03/15 05:16:58;;;;;;;8.25;1.27;;;0.20;73.30;;;;;;4138744;28;20052;-88
2023/03/15 05:19:17;;;;;;;10.50;1.55;;;0.30;73.50;;;;;;4138173;28;20072;-88
2023/03/15 05:21:36;;;;;;;13.27;2.00;;;0.20;73.40;;;;;;4139568;28;20041;-88
2023/03/15 05:23:56;;;;;;;13.95;1.40;;;0.30;73.70;;;;;;4139880;28;20108;-87
2023/03/15 05:26:15;;;;;;;11.20;1.52;;;0.20;73.60;;;;;;4127660;28;20698;-88
2023/03/15 05:28:34;;;;;;;13.93;1.88;;;0.30;74.00;;;;;;4138839;28;20121;-88
2023/03/15 05:30:53;;;;;;;15.82;2.10;;;0.30;74.50;;;;;;4139000;28;20080;-88
2023/03/15 05:33:12;;;;;;;12.52;1.60;;;0.40;74.60;;;;;;4137208;28;20041;-88
2023/03/15 05:35:31;;;;;;;13.52;3.65;;;0.40;74.60;;;;;;4125441;28;20669;-88
2023/03/15 05:37:51;;;;;;;12.98;2.72;;;0.30;74.50;;;;;;4126643;28;20056;-90
2023/03/15 05:40:12;;;;;;;15.00;2.78;;;0.40;74.60;;;;;;4122583;28;20106;-91
2023/03/15 05:42:31;;;;;;;15.75;2.15;;;0.40;74.60;;;;;;4123783;28;20125;-91
2023/03/15 05:44:56;;;;;;;11.02;2.75;;;0.40;74.50;;;;;;4138926;28;20116;-88
2023/03/15 05:47:18;;;;;;;29.50;14.57;;;0.40;74.50;;;;;;4125229;28;20101;-88
2023/03/15 05:49:38;;;;;;;31.73;14.80;;;0.50;74.50;;;;;;4138960;28;20500;-87
2023/03/15 05:51:57;;;;;;;20.48;6.30;;;0.50;74.50;;;;;;4136788;28;20096;-88
2023/03/15 05:54:16;;;;;;;12.85;3.13;;;0.40;74.40;;;;;;4139859;28;20176;-88
2023/03/15 05:56:35;;;;;;;13.93;2.53;;;0.50;74.40;;;;;;4139707;28;20036;-88
2023/03/15 05:58:55;;;;;;;13.85;2.20;;;0.40;74.40;;;;;;4133984;28;20410;-88
2023/03/15 06:01:14;;;;;;;9.20;1.48;;;0.40;74.20;;;;;;4123553;28;20100;-88
2023/03/15 06:03:33;;;;;;;11.18;1.30;;;0.50;74.30;;;;;;4135832;28;20045;-88
2023/03/15 06:05:52;;;;;;;8.35;1.83;;;0.50;74.30;;;;;;4138237;28;20096;-88
2023/03/15 06:08:14;;;;;;;9.02;1.38;;;0.40;74.10;;;;;;4135982;28;20050;-88
2023/03/15 06:10:33;;;;;;;8.68;1.23;;;0.50;74.40;;;;;;4140482;28;20037;-88
2023/03/15 06:12:54;;;;;;;11.43;1.58;;;0.40;74.30;;;;;;4137374;28;20088;-91
2023/03/15 06:15:13;;;;;;;7.90;1.02;;;0.40;74.20;;;;;;4136327;28;20539;-87
2023/03/15 06:18:08;;;;;;;11.25;1.42;;;0.40;74.30;;;;;;4122312;28;20050;-87
2023/03/15 06:20:43;;;;;;;10.32;1.40;;;0.50;74.70;;;;;;4072580;29;20143;-89
2023/03/15 06:23:02;;;;;;;10.82;1.83;;;0.40;74.50;;;;;;4140216;28;20084;-87
2023/03/15 06:25:22;;;;;;;7.97;1.33;;;0.40;74.50;;;;;;4138452;28;20041;-88
2023/03/15 06:27:41;;;;;;;13.13;1.25;;;0.60;74.60;;;;;;4135278;28;20092;-86
2023/03/15 06:30:01;;;;;;;12.82;1.38;;;0.50;74.60;;;;;;4134302;28;20084;-88
2023/03/15 06:32:21;;;;;;;9.40;1.20;;;0.50;74.60;;;;;;4126851;28;20086;-89
2023/03/15 06:34:40;;;;;;;9.75;1.15;;;0.60;74.50;;;;;;4139526;28;20104;-88
2023/03/15 06:36:59;;;;;;;7.47;1.10;;;0.60;74.60;;;;;;4125100;28;20098;-87
2023/03/15 06:39:19;;;;;;;11.57;1.90;;;0.70;74.80;;;;;;4125495;28;20037;-89
2023/03/15 06:41:40;;;;;;;7.63;2.38;;;0.70;74.70;;;;;;4137804;28;20576;-88
2023/03/15 06:43:59;;;;;;;9.85;2.10;;;0.80;74.90;;;;;;4136612;28;20033;-88
2023/03/15 06:46:19;;;;;;;12.02;1.58;;;0.90;74.80;;;;;;4137020;28;20037;-89
2023/03/15 06:48:37;;;;;;;4.45;0.82;;;1.10;74.90;;;;;;4132591;28;20145;-89
2023/03/15 06:50:39;;;;;;;6.53;1.45;;;1.00;74.70;;;;;;4127816;28;20030;-88
2023/03/15 06:52:40;;;;;;;7.28;1.00;;;1.10;74.60;;;;;;4120922;28;20031;-87
2023/03/15 06:54:40;;;;;;;4.28;1.10;;;1.10;74.60;;;;;;4135897;28;20120;-88
2023/03/15 06:56:41;;;;;;;7.22;1.17;;;1.30;74.50;;;;;;4122215;28;20460;-88
2023/03/15 06:58:42;;;;;;;7.00;0.57;;;1.20;74.40;;;;;;4123610;28;20034;-89
2023/03/15 07:00:43;;;;;;;3.33;0.50;;;1.30;74.40;;;;;;4137817;28;20472;-88
2023/03/15 07:02:44;;;;;;;7.57;0.82;;;1.40;74.40;;;;;;4110122;28;20030;-88
2023/03/15 07:04:45;;;;;;;6.32;0.90;;;1.50;74.30;;;;;;4134673;28;20022;-88
2023/03/15 07:06:46;;;;;;;5.82;0.63;;;1.50;74.20;;;;;;4119657;28;20133;-88
2023/03/15 07:08:46;;;;;;;9.75;0.90;;;1.40;74.10;;;;;;4123965;28;20432;-91
2023/03/15 07:10:50;;;;;;;6.03;0.75;;;1.50;74.10;;;;;;4125087;28;20910;-88
2023/03/15 07:12:51;;;;;;;10.80;0.90;;;1.50;74.10;;;;;;4126627;28;20453;-89
2023/03/15 07:14:52;;;;;;;7.75;1.00;;;1.60;74.10;;;;;;4121328;28;20035;-88
2023/03/15 07:16:52;;;;;;;5.68;1.17;;;1.50;74.00;;;;;;4126927;28;20072;-88
2023/03/15 07:19:13;;;;;;;6.78;0.93;;;1.50;74.00;;;;;;4122604;28;20070;-89
2023/03/15 07:21:14;;;;;;;9.63;1.17;;;1.60;74.10;;;;;;4125630;28;20026;-89
2023/03/15 07:23:37;;;;;;;6.65;1.00;;;1.60;74.00;;;;;;4136265;28;20037;-88
2023/03/15 07:25:58;;;;;;;6.20;1.00;;;1.70;74.10;;;;;;4125766;28;20062;-88
2023/03/15 07:28:21;;;;;;;13.98;1.27;;;1.80;74.00;;;;;;4136974;28;20026;-89
2023/03/15 07:30:41;;;;;;;8.25;1.25;;;1.70;73.90;;;;;;4134267;28;20062;-90
2023/03/15 07:33:02;;;;;;;4.38;1.08;;;1.90;74.00;;;;;;4136424;28;20065;-88
2023/03/15 07:35:22;;;;;;;5.70;0.90;;;1.90;73.90;;;;;;4138876;28;20041;-89
2023/03/15 07:37:43;;;;;;;6.15;0.73;;;1.90;73.90;;;;;;4137819;28;20034;-88
2023/03/15 07:40:08;;;;;;;7.30;1.00;;;2.10;74.10;;;;;;4136780;28;20046;-89
2023/03/15 07:42:29;;;;;;;4.97;0.90;;;2.10;74.10;;;;;;4122040;28;20034;-88
2023/03/15 07:44:50;;;;;;;13.45;1.10;;;2.20;74.20;;;;;;4127453;28;20031;-88
2023/03/15 07:47:10;;;;;;;5.40;0.90;;;2.40;74.10;;;;;;4134559;28;20040;-89
2023/03/15 07:49:33;;;;;;;11.63;1.42;;;2.50;73.90;;;;;;4127978;28;20073;-88
2023/03/15 07:51:53;;;;;;;12.85;1.08;;;2.50;73.20;;;;;;4136481;28;20040;-89
2023/03/15 07:54:14;;;;;;;9.13;1.10;;;2.50;72.60;;;;;;4124905;28;20031;-89
2023/03/15 07:56:35;;;;;;;5.03;0.95;;;2.60;72.40;;;;;;4134820;28;20057;-89
2023/03/15 07:58:55;;;;;;;10.40;0.98;;;2.60;72.10;;;;;;4140055;28;20284;-88
2023/03/15 08:01:16;;;;;;;5.20;0.90;;;2.60;72.10;;;;;;4129464;28;20173;-89
2023/03/15 08:03:37;;;;;;;10.15;1.25;;;2.60;72.30;;;;;;4137643;28;20077;-88
2023/03/15 08:05:58;;;;;;;11.30;1.50;;;2.60;72.20;;;;;;4138468;28;20066;-88
2023/03/15 08:08:18;;;;;;;9.95;1.40;;;2.60;72.20;;;;;;4138840;28;20057;-89
2023/03/15 08:10:39;;;;;;;12.52;1.15;;;2.70;72.30;;;;;;4127280;28;20026;-88
2023/03/15 08:13:00;;;;;;;11.30;1.00;;;2.70;72.30;;;;;;4143191;28;20022;-88
2023/03/15 08:15:20;;;;;;;10.48;0.68;;;2.70;72.40;;;;;;4138592;28;20042;-89
2023/03/15 08:17:42;;;;;;;8.18;1.00;;;2.80;72.60;;;;;;4142502;28;20092;-88
2023/03/15 08:20:03;;;;;;;6.00;0.80;;;2.90;72.60;;;;;;4139780;28;20070;-87
2023/03/15 08:22:24;;;;;;;11.48;1.30;;;2.80;72.50;;;;;;4138578;28;20065;-89
2023/03/15 08:24:44;;;;;;;7.65;0.90;;;2.90;72.80;;;;;;4140417;28;20092;-88
2023/03/15 08:27:05;;;;;;;7.70;1.10;;;2.90;72.70;;;;;;4130008;28;20031;-88
2023/03/15 08:29:27;;;;;;;9.70;1.27;;;2.90;72.40;;;;;;4137826;28;20037;-89
2023/03/15 08:31:47;;;;;;;3.70;0.50;;;3.00;72.30;;;;;;4127001;28;20065;-87
2023/03/15 08:34:06;;;;;;;9.93;1.15;;;3.10;72.20;;;;;;4141025;28;20530;-88
2023/03/15 08:36:25;;;;;;;6.45;1.00;;;3.10;71.30;;;;;;4139466;28;20451;-86
2023/03/15 08:38:45;;;;;;;6.20;0.90;;;3.10;70.80;;;;;;4130251;28;20060;-87
2023/03/15 08:41:04;;;;;;;6.07;0.63;;;3.10;70.20;;;;;;4141007;28;20073;-87
2023/03/15 08:43:24;;;;;;;5.63;0.95;;;3.10;69.90;;;;;;4138370;28;20550;-88
2023/03/15 08:45:43;;;;;;;5.85;0.80;;;3.20;69.80;;;;;;4143369;28;20036;-87
2023/03/15 08:48:02;;;;;;;7.03;1.00;;;3.20;69.80;;;;;;4141752;28;20041;-87
2023/03/15 08:50:22;;;;;;;4.35;0.68;;;3.20;70.00;;;;;;4127927;28;20121;-88
2023/03/15 08:52:42;;;;;;;8.80;0.73;;;3.30;70.00;;;;;;4138007;28;20665;-88
2023/03/15 08:55:03;;;;;;;6.65;1.05;;;3.30;70.20;;;;;;4129721;28;20069;-88
2023/03/15 08:57:26;;;;;;;4.78;0.80;;;3.40;70.60;;;;;;4130639;28;20133;-88
2023/03/15 08:59:45;;;;;;;7.03;0.82;;;3.50;70.80;;;;;;4139756;28;20057;-87
2023/03/15 09:02:04;;;;;;;7.15;1.15;;;3.50;70.90;;;;;;4138453;28;20084;-89
2023/03/15 09:04:23;;;;;;;11.77;1.30;;;3.60;70.90;;;;;;4137370;28;20110;-89
2023/03/15 09:06:42;;;;;;;5.05;0.73;;;3.70;71.00;;;;;;4138840;28;20040;-88
2023/03/15 09:09:04;;;;;;;7.55;1.00;;;3.80;71.00;;;;;;4139522;28;20676;-88
2023/03/15 09:11:23;;;;;;;6.70;1.38;;;3.90;70.70;;;;;;4130149;28;20033;-88
2023/03/15 09:13:42;;;;;;;8.70;1.13;;;3.90;70.30;;;;;;4138328;28;20448;-88
2023/03/15 09:16:02;;;;;;;7.72;0.98;;;4.00;70.00;;;;;;4131803;28;20052;-88
2023/03/15 09:18:22;;;;;;;8.27;1.55;;;4.10;69.70;;;;;;4140788;28;20522;-88
2023/03/15 09:20:41;;;;;;;8.90;1.02;;;4.20;69.70;;;;;;4128312;28;20033;-87
2023/03/15 09:23:00;;;;;;;7.55;1.00;;;4.20;68.80;;;;;;4137245;28;20044;-88
2023/03/15 09:25:20;;;;;;;7.85;0.90;;;4.30;69.10;;;;;;4128986;28;20049;-87
2023/03/15 09:27:39;;;;;;;9.80;1.13;;;4.30;68.30;;;;;;4137633;28;20033;-87
2023/03/15 09:29:58;;;;;;;9.30;1.23;;;4.40;67.50;;;;;;4137972;28;20042;-88
2023/03/15 09:32:18;;;;;;;6.38;0.77;;;4.40;66.90;;;;;;4141375;28;20550;-88
2023/03/15 09:34:37;;;;;;;6.13;0.70;;;4.60;67.30;;;;;;4136156;28;20112;-87
2023/03/15 09:36:57;;;;;;;8.95;1.02;;;4.50;66.40;;;;;;4130568;28;20053;-89
2023/03/15 09:39:16;;;;;;;6.65;1.00;;;4.60;66.70;;;;;;4143504;28;20093;-88
2023/03/15 09:41:44;;;;;;;2.60;0.38;;;4.70;66.80;;;;;;4141736;28;20040;-87
2023/03/15 09:44:30;;;;;;;4.28;0.63;;;4.70;66.40;;;;;;4125774;28;20037;-87
2023/03/15 09:46:55;;;;;;;2.25;0.50;;;4.70;66.60;;;;;;4139534;28;20467;-87
2023/03/15 09:49:28;;;;;;;7.10;0.60;;;4.70;66.20;;;;;;4122978;28;20618;-85
2023/03/15 09:52:05;;;;;;;4.95;0.80;;;4.70;65.70;;;;;;4127439;28;20080;-86
2023/03/15 09:54:31;;;;;;;5.60;1.00;;;4.70;65.70;;;;;;4127489;28;20089;-87
2023/03/15 09:57:03;;;;;;;4.50;0.70;;;4.70;65.90;;;;;;4126009;28;20594;-87
2023/03/15 09:59:28;;;;;;;6.70;1.23;;;4.80;65.70;;;;;;4125290;28;20101;-87
2023/03/15 10:01:51;;;;;;;10.27;1.25;;;4.60;65.40;;;;;;4126085;28;20178;-85
2023/03/15 10:04:23;;;;;;;6.10;0.80;;;4.60;65.10;;;;;;4139834;28;20045;-86
2023/03/15 10:06:48;;;;;;;6.95;1.13;;;4.60;64.90;;;;;;4127532;28;20083;-85
2023/03/15 10:09:20;;;;;;;4.40;1.30;;;4.50;64.70;;;;;;4137075;28;20037;-87
2023/03/15 10:12:10;;;;;;;4.70;1.02;;;4.60;64.30;;;;;;4128711;28;20094;-86
2023/03/15 10:14:41;;;;;;;7.43;1.05;;;4.60;64.40;;;;;;4125707;28;20073;-86
2023/03/15 10:17:10;;;;;;;6.65;1.02;;;4.60;64.90;;;;;;4142013;28;20123;-87
2023/03/15 10:20:09;;;;;;;6.05;0.80;;;4.60;65.00;;;;;;4136869;28;20069;-87
2023/03/15 10:22:49;;;;;;;6.68;1.58;;;4.60;65.10;;;;;;4140833;28;20550;-87
2023/03/15 10:25:25;;;;;;;9.02;1.30;;;4.60;64.60;;;;;;4139378;28;20036;-87
2023/03/15 10:28:05;;;;;;;8.18;1.63;;;4.60;63.70;;;;;;4140062;28;20028;-87
2023/03/15 10:30:27;;;;;;;10.90;1.50;;;4.70;64.20;;;;;;4142546;28;20033;-86
2023/03/15 10:32:55;;;;;;;9.50;1.45;;;4.70;63.60;;;;;;4142748;28;20114;-87
2023/03/15 10:35:20;;;;;;;6.43;1.90;;;4.70;63.60;;;;;;4138762;28;20037;-86
2023/03/15 10:37:41;;;;;;;8.27;0.85;;;4.80;62.40;;;;;;4136966;28;20033;-85
2023/03/15 10:40:00;;;;;;;8.75;1.23;;;4.80;62.20;;;;;;4141438;28;20045;-88
2023/03/15 10:42:31;;;;;;;5.43;1.02;;;4.80;60.90;;;;;;4138227;28;20095;-86
2023/03/15 10:44:50;;;;;;;5.70;1.00;;;4.90;60.20;;;;;;4125731;28;20075;-86
2023/03/15 10:47:13;;;;;;;9.55;1.13;;;5.00;59.40;;;;;;4137963;28;20144;-86
2023/03/15 10:49:37;;;;;;;9.95;1.20;;;4.90;59.50;;;;;;4126854;28;20587;-86
2023/03/15 10:51:57;;;;;;;5.57;0.70;;;4.90;58.80;;;;;;4136636;28;20617;-87
2023/03/15 10:54:22;;;;;;;6.35;0.65;;;4.90;59.40;;;;;;4136761;28;20072;-86
2023/03/15 10:57:05;;;;;;;1.83;0.40;;;4.80;60.20;;;;;;4125051;28;20102;-87
2023/03/15 10:59:26;;;;;;;4.07;0.40;;;4.90;60.40;;;;;;4137008;28;20482;-86
2023/03/15 11:01:48;;;;;;;7.15;0.60;;;5.00;60.70;;;;;;4139333;28;20117;-86
2023/03/15 11:04:22;;;;;;;9.40;0.60;;;4.90;60.80;;;;;;4138559;28;20044;-86
2023/03/15 11:06:43;;;;;;;;;;;4.90;61.80;;;;;;4144337;28;20036;-86
2023/03/15 11:09:15;;;;;;;8.60;0.70;;;5.00;61.60;;;;;;4140299;28;19932;-86
2023/03/15 11:11:52;;;;;;;6.53;0.68;;;5.00;61.90;;;;;;4138389;28;20092;-86
2023/03/15 11:14:12;;;;;;;7.05;0.88;;;5.00;62.00;;;;;;4128295;28;20094;-87
2023/03/15 11:16:36;;;;;;;7.10;1.10;;;5.10;62.40;;;;;;4139301;28;20053;-86
2023/03/15 11:19:02;;;;;;;5.65;0.98;;;5.10;61.20;;;;;;4141975;28;20049;-86
2023/03/15 11:21:25;;;;;;;4.57;1.13;;;5.10;60.30;;;;;;4136645;28;20049;-86
2023/03/15 11:23:49;;;;;;;6.85;0.85;;;5.20;60.30;;;;;;4127692;28;20030;-85
2023/03/15 11:26:18;;;;;;;4.05;0.68;;;5.10;59.80;;;;;;4138879;28;20044;-85
2023/03/15 11:28:42;;;;;;;6.13;0.80;;;5.20;59.80;;;;;;4136571;28;20044;-85
2023/03/15 11:31:03;;;;;;;;;;;5.30;60.10;;;;;;4127548;28;20121;-86
2023/03/15 11:33:53;;;;;;;7.28;0.98;;;5.40;60.00;;;;;;4136218;28;19976;-86
2023/03/15 11:36:20;;;;;;;5.13;0.90;;;5.50;59.70;;;;;;4139725;28;20033;-85
2023/03/15 11:38:44;;;;;;;7.95;1.15;;;5.60;59.10;;;;;;4137165;28;20037;-86
2023/03/15 11:41:43;;;;;;;14.43;1.38;;;5.60;58.10;;;;;;4138266;28;20080;-85
2023/03/15 11:44:27;;;;;;;8.48;1.20;;;5.70;58.60;;;;;;4139739;28;20169;-84
2023/03/15 11:46:51;;;;;;;6.13;1.08;;;5.70;58.10;;;;;;4140446;28;20556;-85
2023/03/15 11:49:16;;;;;;;5.68;1.00;;;5.70;57.00;;;;;;4141030;28;20109;-87
2023/03/15 11:51:36;;;;;;;4.03;0.88;;;5.80;56.30;;;;;;4138734;28;20100;-87
2023/03/15 11:54:14;;;;;;;5.70;1.20;;;5.90;56.30;;;;;;4125679;28;20077;-87
2023/03/15 11:56:42;;;;;;;4.72;0.80;;;5.90;56.00;;;;;;4136860;28;20038;-85
2023/03/15 11:59:17;;;;;;;6.40;1.00;;;5.90;55.50;;;;;;4140682;28;20077;-86
2023/03/15 12:01:41;;;;;;;4.97;1.02;;;5.70;57.90;;;;;;4141863;28;20045;-87
2023/03/15 12:04:32;;;;;;;10.70;1.45;;;5.70;59.70;;;;;;4140065;28;20045;-85
2023/03/15 12:06:55;;;;;;;13.63;1.85;;;5.50;60.30;;;;;;4139960;28;20037;-86
2023/03/15 12:09:39;;;;;;;11.10;1.60;;;5.40;60.60;;;;;;4136574;28;20037;-86
2023/03/15 12:12:25;;;;;;;8.85;1.20;;;5.30;61.00;;;;;;4139516;28;20126;-86
2023/03/15 12:14:44;;;;;;;9.27;1.55;;;5.10;61.60;;;;;;4132758;28;20384;-85
2023/03/15 12:16:45;;;;;;;6.63;1.00;;;5.00;62.90;;;;;;4138667;28;20026;-86
2023/03/15 12:18:46;;;;;;;11.13;1.42;;;4.90;63.70;;;;;;4120080;28;20026;-86
2023/03/15 12:21:12;;;;;;;9.63;1.30;;;4.80;64.40;;;;;;4136189;28;20073;-86